sensor_id;sensor_type;location;lat;lon;timestamp;temperature;humidity
25440;DHT22;13365;52.208;5.488;2022-07-30T00:01:01;22.10;93.30
25440;DHT22;13365;52.208;5.488;2022-07-30T00:03:26;22.10;93.50
25440;DHT22;13365;52.208;5.488;2022-07-30T00:05:52;22.30;93.80
25440;DHT22;13365;52.208;5.488;2022-07-30T00:08:19;22.40;93.20
25440;DHT22;13365;52.208;5.488;2022-07-30T00:10:44;22.40;93.00
25440;DHT22;13365;52.208;5.488;2022-07-30T00:13:10;22.40;93.00
25440;DHT22;13365;52.208;5.488;2022-07-30T00:15:35;22.30;93.10
25440;DHT22;13365;52.208;5.488;2022-07-30T00:18:01;22.40;93.00
25440;DHT22;13365;52.208;5.488;2022-07-30T00:20:26;22.50;92.50
25440;DHT22;13365;52.208;5.488;2022-07-30T00:22:52;22.30;92.10
25440;DHT22;13365;52.208;5.488;2022-07-30T00:25:17;22.30;91.80
25440;DHT22;13365;52.208;5.488;2022-07-30T00:27:43;22.20;92.20
25440;DHT22;13365;52.208;5.488;2022-07-30T00:30:09;22.20;92.20
25440;DHT22;13365;52.208;5.488;2022-07-30T00:32:37;22.10;92.30
25440;DHT22;13365;52.208;5.488;2022-07-30T00:35:02;21.90;92.30
25440;DHT22;13365;52.208;5.488;2022-07-30T00:37:28;21.90;92.50
25440;DHT22;13365;52.208;5.488;2022-07-30T00:39:53;22.10;92.20
25440;DHT22;13365;52.208;5.488;2022-07-30T00:42:19;22.20;91.80
25440;DHT22;13365;52.208;5.488;2022-07-30T00:44:50;22.20;91.70
25440;DHT22;13365;52.208;5.488;2022-07-30T00:47:16;22.10;91.70
25440;DHT22;13365;52.208;5.488;2022-07-30T00:49:42;22.20;91.80
25440;DHT22;13365;52.208;5.488;2022-07-30T00:52:08;21.80;92.10
25440;DHT22;13365;52.208;5.488;2022-07-30T00:54:33;21.50;92.70
25440;DHT22;13365;52.208;5.488;2022-07-30T00:56:58;21.30;93.50
25440;DHT22;13365;52.208;5.488;2022-07-30T00:59:24;21.30;93.60
25440;DHT22;13365;52.208;5.488;2022-07-30T01:01:52;21.20;93.60
25440;DHT22;13365;52.208;5.488;2022-07-30T01:04:17;21.20;93.80
25440;DHT22;13365;52.208;5.488;2022-07-30T01:06:43;21.30;93.60
25440;DHT22;13365;52.208;5.488;2022-07-30T01:09:08;21.40;93.40
25440;DHT22;13365;52.208;5.488;2022-07-30T01:11:37;21.40;93.20
25440;DHT22;13365;52.208;5.488;2022-07-30T01:14:06;21.30;93.20
25440;DHT22;13365;52.208;5.488;2022-07-30T01:16:33;21.00;93.60
25440;DHT22;13365;52.208;5.488;2022-07-30T01:18:58;20.80;94.40
25440;DHT22;13365;52.208;5.488;2022-07-30T01:21:45;20.90;94.40
25440;DHT22;13365;52.208;5.488;2022-07-30T01:24:29;20.90;94.20
25440;DHT22;13365;52.208;5.488;2022-07-30T01:26:58;20.60;94.70
25440;DHT22;13365;52.208;5.488;2022-07-30T01:29:25;20.60;95.30
25440;DHT22;13365;52.208;5.488;2022-07-30T01:31:51;20.60;95.30
25440;DHT22;13365;52.208;5.488;2022-07-30T01:34:20;20.60;95.50
25440;DHT22;13365;52.208;5.488;2022-07-30T01:36:47;20.80;95.30
25440;DHT22;13365;52.208;5.488;2022-07-30T01:39:13;20.80;95.00
25440;DHT22;13365;52.208;5.488;2022-07-30T01:41:38;21.00;95.10
25440;DHT22;13365;52.208;5.488;2022-07-30T01:44:06;21.30;94.50
25440;DHT22;13365;52.208;5.488;2022-07-30T01:46:34;21.40;94.00
25440;DHT22;13365;52.208;5.488;2022-07-30T01:49:00;21.30;93.80
25440;DHT22;13365;52.208;5.488;2022-07-30T01:51:26;21.20;93.80
25440;DHT22;13365;52.208;5.488;2022-07-30T01:53:52;21.20;94.00
25440;DHT22;13365;52.208;5.488;2022-07-30T01:56:18;21.30;94.30
25440;DHT22;13365;52.208;5.488;2022-07-30T01:58:44;21.40;93.70
25440;DHT22;13365;52.208;5.488;2022-07-30T02:01:10;21.30;93.80
25440;DHT22;13365;52.208;5.488;2022-07-30T02:03:36;21.30;93.70
25440;DHT22;13365;52.208;5.488;2022-07-30T02:06:04;21.10;93.70
25440;DHT22;13365;52.208;5.488;2022-07-30T02:08:34;21.10;93.80
25440;DHT22;13365;52.208;5.488;2022-07-30T02:11:05;21.20;93.80
25440;DHT22;13365;52.208;5.488;2022-07-30T02:13:31;21.20;93.60
25440;DHT22;13365;52.208;5.488;2022-07-30T02:15:59;21.30;93.60
25440;DHT22;13365;52.208;5.488;2022-07-30T02:21:12;21.30;93.30
25440;DHT22;13365;52.208;5.488;2022-07-30T02:23:38;21.20;93.70
25440;DHT22;13365;52.208;5.488;2022-07-30T02:26:05;21.50;92.90
25440;DHT22;13365;52.208;5.488;2022-07-30T02:28:33;21.50;92.40
25440;DHT22;13365;52.208;5.488;2022-07-30T02:31:01;21.30;92.50
25440;DHT22;13365;52.208;5.488;2022-07-30T02:33:28;21.00;93.10
25440;DHT22;13365;52.208;5.488;2022-07-30T02:35:54;21.20;93.10
25440;DHT22;13365;52.208;5.488;2022-07-30T02:38:20;21.40;92.60
25440;DHT22;13365;52.208;5.488;2022-07-30T02:40:46;21.00;93.40
25440;DHT22;13365;52.208;5.488;2022-07-30T02:43:15;20.70;94.00
25440;DHT22;13365;52.208;5.488;2022-07-30T02:45:42;20.50;94.40
25440;DHT22;13365;52.208;5.488;2022-07-30T02:48:10;20.40;94.60
25440;DHT22;13365;52.208;5.488;2022-07-30T02:50:37;20.50;94.80
25440;DHT22;13365;52.208;5.488;2022-07-30T02:53:04;20.50;95.00
25440;DHT22;13365;52.208;5.488;2022-07-30T02:55:31;20.50;94.90
25440;DHT22;13365;52.208;5.488;2022-07-30T02:57:59;20.70;94.60
25440;DHT22;13365;52.208;5.488;2022-07-30T03:00:25;20.70;93.70
25440;DHT22;13365;52.208;5.488;2022-07-30T03:02:51;20.70;94.10
25440;DHT22;13365;52.208;5.488;2022-07-30T03:05:18;20.80;93.70
25440;DHT22;13365;52.208;5.488;2022-07-30T03:07:44;20.90;93.30
25440;DHT22;13365;52.208;5.488;2022-07-30T03:10:10;20.90;92.70
25440;DHT22;13365;52.208;5.488;2022-07-30T03:12:36;20.90;92.40
25440;DHT22;13365;52.208;5.488;2022-07-30T03:15:04;21.00;91.90
25440;DHT22;13365;52.208;5.488;2022-07-30T03:17:32;21.10;91.60
25440;DHT22;13365;52.208;5.488;2022-07-30T03:19:59;21.10;91.40
25440;DHT22;13365;52.208;5.488;2022-07-30T03:22:25;21.20;91.10
25440;DHT22;13365;52.208;5.488;2022-07-30T03:24:51;21.00;91.10
25440;DHT22;13365;52.208;5.488;2022-07-30T03:27:18;20.80;91.80
25440;DHT22;13365;52.208;5.488;2022-07-30T03:29:44;20.60;92.80
25440;DHT22;13365;52.208;5.488;2022-07-30T03:32:11;20.70;92.80
25440;DHT22;13365;52.208;5.488;2022-07-30T03:34:36;20.80;92.30
25440;DHT22;13365;52.208;5.488;2022-07-30T03:37:03;20.40;93.20
25440;DHT22;13365;52.208;5.488;2022-07-30T03:39:29;20.50;93.60
25440;DHT22;13365;52.208;5.488;2022-07-30T03:41:57;20.40;93.60
25440;DHT22;13365;52.208;5.488;2022-07-30T03:44:22;20.30;93.60
25440;DHT22;13365;52.208;5.488;2022-07-30T03:46:48;20.60;93.50
25440;DHT22;13365;52.208;5.488;2022-07-30T03:49:15;20.70;93.00
25440;DHT22;13365;52.208;5.488;2022-07-30T03:51:41;20.70;92.50
25440;DHT22;13365;52.208;5.488;2022-07-30T03:54:07;20.70;91.90
25440;DHT22;13365;52.208;5.488;2022-07-30T03:56:35;20.80;91.50
25440;DHT22;13365;52.208;5.488;2022-07-30T03:59:01;20.70;91.30
25440;DHT22;13365;52.208;5.488;2022-07-30T04:01:26;20.70;91.10
25440;DHT22;13365;52.208;5.488;2022-07-30T04:03:51;20.70;90.90
25440;DHT22;13365;52.208;5.488;2022-07-30T04:06:17;20.60;90.90
25440;DHT22;13365;52.208;5.488;2022-07-30T04:08:42;20.60;91.30
25440;DHT22;13365;52.208;5.488;2022-07-30T04:11:08;20.30;91.90
25440;DHT22;13365;52.208;5.488;2022-07-30T04:13:33;20.20;92.80
25440;DHT22;13365;52.208;5.488;2022-07-30T04:16:09;20.20;92.90
25440;DHT22;13365;52.208;5.488;2022-07-30T04:18:36;20.10;93.30
25440;DHT22;13365;52.208;5.488;2022-07-30T04:21:03;19.80;94.00
25440;DHT22;13365;52.208;5.488;2022-07-30T04:23:31;20.10;94.00
25440;DHT22;13365;52.208;5.488;2022-07-30T04:25:56;20.20;93.90
25440;DHT22;13365;52.208;5.488;2022-07-30T04:28:22;20.30;93.80
25440;DHT22;13365;52.208;5.488;2022-07-30T04:30:47;20.20;93.60
25440;DHT22;13365;52.208;5.488;2022-07-30T04:33:13;20.30;93.50
25440;DHT22;13365;52.208;5.488;2022-07-30T04:35:38;20.20;93.60
25440;DHT22;13365;52.208;5.488;2022-07-30T04:38:03;20.10;94.00
25440;DHT22;13365;52.208;5.488;2022-07-30T04:40:29;20.10;94.10
25440;DHT22;13365;52.208;5.488;2022-07-30T04:42:55;20.30;94.00
25440;DHT22;13365;52.208;5.488;2022-07-30T04:45:21;20.40;93.80
25440;DHT22;13365;52.208;5.488;2022-07-30T04:47:46;20.50;93.80
25440;DHT22;13365;52.208;5.488;2022-07-30T04:50:12;20.30;94.10
25440;DHT22;13365;52.208;5.488;2022-07-30T04:52:38;20.30;94.00
25440;DHT22;13365;52.208;5.488;2022-07-30T04:55:05;20.00;94.00
25440;DHT22;13365;52.208;5.488;2022-07-30T04:57:31;19.80;94.80
25440;DHT22;13365;52.208;5.488;2022-07-30T04:59:58;19.80;95.00
25440;DHT22;13365;52.208;5.488;2022-07-30T05:02:24;19.80;95.30
25440;DHT22;13365;52.208;5.488;2022-07-30T05:04:50;19.90;95.40
25440;DHT22;13365;52.208;5.488;2022-07-30T05:07:16;19.60;96.10
25440;DHT22;13365;52.208;5.488;2022-07-30T05:09:43;19.80;96.30
25440;DHT22;13365;52.208;5.488;2022-07-30T05:12:08;19.80;96.50
25440;DHT22;13365;52.208;5.488;2022-07-30T05:14:34;19.90;96.50
25440;DHT22;13365;52.208;5.488;2022-07-30T05:16:59;20.00;96.40
25440;DHT22;13365;52.208;5.488;2022-07-30T05:19:25;20.10;96.50
25440;DHT22;13365;52.208;5.488;2022-07-30T05:21:50;20.30;96.20
25440;DHT22;13365;52.208;5.488;2022-07-30T05:24:16;20.40;96.00
25440;DHT22;13365;52.208;5.488;2022-07-30T05:26:41;20.40;96.00
25440;DHT22;13365;52.208;5.488;2022-07-30T05:29:07;20.40;96.20
25440;DHT22;13365;52.208;5.488;2022-07-30T05:31:32;20.40;96.30
25440;DHT22;13365;52.208;5.488;2022-07-30T05:33:58;20.50;96.20
25440;DHT22;13365;52.208;5.488;2022-07-30T05:36:23;20.90;96.30
25440;DHT22;13365;52.208;5.488;2022-07-30T05:38:49;21.10;95.60
25440;DHT22;13365;52.208;5.488;2022-07-30T05:41:14;21.20;95.40
25440;DHT22;13365;52.208;5.488;2022-07-30T05:43:40;21.10;95.00
25440;DHT22;13365;52.208;5.488;2022-07-30T05:46:05;21.20;95.20
25440;DHT22;13365;52.208;5.488;2022-07-30T05:48:31;21.10;95.50
25440;DHT22;13365;52.208;5.488;2022-07-30T05:50:59;21.10;95.50
25440;DHT22;13365;52.208;5.488;2022-07-30T05:53:25;21.30;95.40
25440;DHT22;13365;52.208;5.488;2022-07-30T05:55:50;20.90;95.80
25440;DHT22;13365;52.208;5.488;2022-07-30T05:58:15;21.00;96.20
25440;DHT22;13365;52.208;5.488;2022-07-30T06:00:41;20.70;96.70
25440;DHT22;13365;52.208;5.488;2022-07-30T06:03:07;20.80;96.60
25440;DHT22;13365;52.208;5.488;2022-07-30T06:05:32;20.90;96.90
25440;DHT22;13365;52.208;5.488;2022-07-30T06:07:58;20.60;97.30
25440;DHT22;13365;52.208;5.488;2022-07-30T06:10:23;20.50;97.30
25440;DHT22;13365;52.208;5.488;2022-07-30T06:12:49;20.60;97.70
25440;DHT22;13365;52.208;5.488;2022-07-30T06:15:14;20.50;97.50
25440;DHT22;13365;52.208;5.488;2022-07-30T06:17:41;20.90;97.50
25440;DHT22;13365;52.208;5.488;2022-07-30T06:20:07;21.00;96.90
25440;DHT22;13365;52.208;5.488;2022-07-30T06:22:32;21.20;96.70
25440;DHT22;13365;52.208;5.488;2022-07-30T06:24:58;21.30;96.70
25440;DHT22;13365;52.208;5.488;2022-07-30T06:27:23;21.50;96.70
25440;DHT22;13365;52.208;5.488;2022-07-30T06:29:50;21.60;96.30
25440;DHT22;13365;52.208;5.488;2022-07-30T06:32:15;21.50;96.00
25440;DHT22;13365;52.208;5.488;2022-07-30T06:34:41;21.40;96.00
25440;DHT22;13365;52.208;5.488;2022-07-30T06:37:07;21.50;96.30
25440;DHT22;13365;52.208;5.488;2022-07-30T06:39:32;21.60;96.40
25440;DHT22;13365;52.208;5.488;2022-07-30T06:41:57;21.60;95.90
25440;DHT22;13365;52.208;5.488;2022-07-30T06:44:23;21.70;96.20
25440;DHT22;13365;52.208;5.488;2022-07-30T06:46:48;21.60;95.60
25440;DHT22;13365;52.208;5.488;2022-07-30T06:49:14;21.70;95.60
25440;DHT22;13365;52.208;5.488;2022-07-30T06:51:39;21.80;95.70
25440;DHT22;13365;52.208;5.488;2022-07-30T06:54:05;22.10;95.60
25440;DHT22;13365;52.208;5.488;2022-07-30T06:56:30;22.10;94.90
25440;DHT22;13365;52.208;5.488;2022-07-30T06:58:56;22.10;94.80
25440;DHT22;13365;52.208;5.488;2022-07-30T07:01:21;22.30;94.70
25440;DHT22;13365;52.208;5.488;2022-07-30T07:03:49;22.40;93.50
25440;DHT22;13365;52.208;5.488;2022-07-30T07:06:14;22.40;93.70
25440;DHT22;13365;52.208;5.488;2022-07-30T07:08:40;22.40;93.60
25440;DHT22;13365;52.208;5.488;2022-07-30T07:11:05;23.10;93.30
25440;DHT22;13365;52.208;5.488;2022-07-30T07:13:31;23.50;92.10
25440;DHT22;13365;52.208;5.488;2022-07-30T07:15:56;23.60;91.10
25440;DHT22;13365;52.208;5.488;2022-07-30T07:18:22;23.30;91.30
25440;DHT22;13365;52.208;5.488;2022-07-30T07:20:47;23.30;91.60
25440;DHT22;13365;52.208;5.488;2022-07-30T07:23:13;23.30;90.80
25440;DHT22;13365;52.208;5.488;2022-07-30T07:25:39;23.30;90.90
25440;DHT22;13365;52.208;5.488;2022-07-30T07:28:04;23.10;90.50
25440;DHT22;13365;52.208;5.488;2022-07-30T07:30:30;22.90;90.70
25440;DHT22;13365;52.208;5.488;2022-07-30T07:32:55;22.80;90.40
25440;DHT22;13365;52.208;5.488;2022-07-30T07:35:21;23.10;90.20
25440;DHT22;13365;52.208;5.488;2022-07-30T07:37:46;23.20;89.20
25440;DHT22;13365;52.208;5.488;2022-07-30T07:40:12;22.90;88.10
25440;DHT22;13365;52.208;5.488;2022-07-30T07:42:37;23.00;88.10
25440;DHT22;13365;52.208;5.488;2022-07-30T07:45:03;23.30;88.40
25440;DHT22;13365;52.208;5.488;2022-07-30T07:47:28;23.40;86.40
25440;DHT22;13365;52.208;5.488;2022-07-30T07:49:54;23.60;87.20
25440;DHT22;13365;52.208;5.488;2022-07-30T07:52:19;23.80;85.80
25440;DHT22;13365;52.208;5.488;2022-07-30T07:54:45;24.30;84.50
25440;DHT22;13365;52.208;5.488;2022-07-30T07:57:10;24.70;83.10
25440;DHT22;13365;52.208;5.488;2022-07-30T07:59:36;25.10;82.60
25440;DHT22;13365;52.208;5.488;2022-07-30T08:02:01;25.30;79.10
25440;DHT22;13365;52.208;5.488;2022-07-30T08:04:27;25.30;77.60
25440;DHT22;13365;52.208;5.488;2022-07-30T08:06:52;25.30;77.70
25440;DHT22;13365;52.208;5.488;2022-07-30T08:09:19;24.90;77.80
25440;DHT22;13365;52.208;5.488;2022-07-30T08:11:44;24.90;79.40
25440;DHT22;13365;52.208;5.488;2022-07-30T08:14:10;25.20;77.80
25440;DHT22;13365;52.208;5.488;2022-07-30T08:16:35;25.30;77.20
25440;DHT22;13365;52.208;5.488;2022-07-30T08:19:01;25.70;76.30
25440;DHT22;13365;52.208;5.488;2022-07-30T08:21:26;25.70;75.00
25440;DHT22;13365;52.208;5.488;2022-07-30T08:23:52;25.50;75.00
25440;DHT22;13365;52.208;5.488;2022-07-30T08:26:17;25.30;75.60
25440;DHT22;13365;52.208;5.488;2022-07-30T08:28:43;25.40;76.10
25440;DHT22;13365;52.208;5.488;2022-07-30T08:31:09;25.30;74.70
25440;DHT22;13365;52.208;5.488;2022-07-30T08:33:35;25.00;74.80
25440;DHT22;13365;52.208;5.488;2022-07-30T08:36:00;24.90;74.60
25440;DHT22;13365;52.208;5.488;2022-07-30T08:38:26;25.20;74.40
25440;DHT22;13365;52.208;5.488;2022-07-30T08:40:53;25.70;74.20
25440;DHT22;13365;52.208;5.488;2022-07-30T08:43:19;25.90;73.20
25440;DHT22;13365;52.208;5.488;2022-07-30T08:45:45;26.10;72.40
25440;DHT22;13365;52.208;5.488;2022-07-30T08:48:10;26.20;71.50
25440;DHT22;13365;52.208;5.488;2022-07-30T08:50:38;26.50;70.70
25440;DHT22;13365;52.208;5.488;2022-07-30T08:53:04;26.20;69.20
25440;DHT22;13365;52.208;5.488;2022-07-30T08:55:30;26.30;69.80
25440;DHT22;13365;52.208;5.488;2022-07-30T08:57:55;26.50;68.40
25440;DHT22;13365;52.208;5.488;2022-07-30T09:00:21;27.00;66.50
25440;DHT22;13365;52.208;5.488;2022-07-30T09:02:46;26.40;69.60
25440;DHT22;13365;52.208;5.488;2022-07-30T09:05:12;26.90;71.60
25440;DHT22;13365;52.208;5.488;2022-07-30T09:07:38;27.10;67.90
25440;DHT22;13365;52.208;5.488;2022-07-30T09:10:04;27.40;66.20
25440;DHT22;13365;52.208;5.488;2022-07-30T09:15:14;27.40;63.40
25440;DHT22;13365;52.208;5.488;2022-07-30T09:20:12;27.20;64.50
25440;DHT22;13365;52.208;5.488;2022-07-30T09:22:48;27.10;64.30
25440;DHT22;13365;52.208;5.488;2022-07-30T09:25:14;27.20;64.40
25440;DHT22;13365;52.208;5.488;2022-07-30T09:27:46;27.60;65.50
25440;DHT22;13365;52.208;5.488;2022-07-30T09:30:12;28.10;63.60
25440;DHT22;13365;52.208;5.488;2022-07-30T09:32:51;28.40;64.20
25440;DHT22;13365;52.208;5.488;2022-07-30T09:35:17;28.40;62.00
25440;DHT22;13365;52.208;5.488;2022-07-30T09:37:44;28.20;61.40
25440;DHT22;13365;52.208;5.488;2022-07-30T09:40:16;28.40;63.00
25440;DHT22;13365;52.208;5.488;2022-07-30T09:42:42;28.30;61.30
25440;DHT22;13365;52.208;5.488;2022-07-30T09:45:11;28.20;61.50
25440;DHT22;13365;52.208;5.488;2022-07-30T09:47:38;28.10;62.30
25440;DHT22;13365;52.208;5.488;2022-07-30T09:50:10;28.50;61.00
25440;DHT22;13365;52.208;5.488;2022-07-30T09:52:37;28.50;59.80
25440;DHT22;13365;52.208;5.488;2022-07-30T09:55:03;28.20;61.10
25440;DHT22;13365;52.208;5.488;2022-07-30T09:57:28;28.00;60.30
25440;DHT22;13365;52.208;5.488;2022-07-30T09:59:57;27.60;62.40
25440;DHT22;13365;52.208;5.488;2022-07-30T10:02:39;27.40;61.00
25440;DHT22;13365;52.208;5.488;2022-07-30T10:05:08;27.50;63.80
25440;DHT22;13365;52.208;5.488;2022-07-30T10:07:34;27.50;62.80
25440;DHT22;13365;52.208;5.488;2022-07-30T10:10:00;27.40;63.60
25440;DHT22;13365;52.208;5.488;2022-07-30T10:12:25;28.10;63.80
25440;DHT22;13365;52.208;5.488;2022-07-30T10:14:52;28.50;61.30
25440;DHT22;13365;52.208;5.488;2022-07-30T10:17:18;28.30;60.60
25440;DHT22;13365;52.208;5.488;2022-07-30T10:19:44;28.60;59.70
25440;DHT22;13365;52.208;5.488;2022-07-30T10:22:09;28.60;60.30
25440;DHT22;13365;52.208;5.488;2022-07-30T10:24:35;28.60;60.80
25440;DHT22;13365;52.208;5.488;2022-07-30T10:27:01;28.90;59.40
25440;DHT22;13365;52.208;5.488;2022-07-30T10:29:27;29.20;59.20
25440;DHT22;13365;52.208;5.488;2022-07-30T10:31:52;28.90;58.60
25440;DHT22;13365;52.208;5.488;2022-07-30T10:34:18;28.80;58.90
25440;DHT22;13365;52.208;5.488;2022-07-30T10:36:48;28.80;59.50
25440;DHT22;13365;52.208;5.488;2022-07-30T10:39:23;29.50;60.50
25440;DHT22;13365;52.208;5.488;2022-07-30T10:46:54;30.10;58.10
25440;DHT22;13365;52.208;5.488;2022-07-30T10:49:22;30.00;57.50
25440;DHT22;13365;52.208;5.488;2022-07-30T10:51:50;29.90;58.50
25440;DHT22;13365;52.208;5.488;2022-07-30T10:57:07;30.50;58.80
25440;DHT22;13365;52.208;5.488;2022-07-30T11:02:14;30.70;57.40
25440;DHT22;13365;52.208;5.488;2022-07-30T11:04:40;30.90;56.40
25440;DHT22;13365;52.208;5.488;2022-07-30T11:09:51;30.30;57.40
25440;DHT22;13365;52.208;5.488;2022-07-30T11:15:02;30.50;57.70
25440;DHT22;13365;52.208;5.488;2022-07-30T11:17:27;30.40;57.80
25440;DHT22;13365;52.208;5.488;2022-07-30T11:20:13;30.30;58.00
25440;DHT22;13365;52.208;5.488;2022-07-30T11:22:39;30.30;58.00
25440;DHT22;13365;52.208;5.488;2022-07-30T11:27:35;30.50;58.80
25440;DHT22;13365;52.208;5.488;2022-07-30T11:30:01;30.70;57.60
25440;DHT22;13365;52.208;5.488;2022-07-30T11:32:28;30.50;57.70
25440;DHT22;13365;52.208;5.488;2022-07-30T11:35:11;30.70;57.60
25440;DHT22;13365;52.208;5.488;2022-07-30T11:40:21;30.70;58.40
25440;DHT22;13365;52.208;5.488;2022-07-30T11:42:47;30.60;57.50
25440;DHT22;13365;52.208;5.488;2022-07-30T11:47:48;30.40;57.70
25440;DHT22;13365;52.208;5.488;2022-07-30T11:50:18;30.20;58.90
25440;DHT22;13365;52.208;5.488;2022-07-30T11:52:47;30.20;59.30
25440;DHT22;13365;52.208;5.488;2022-07-30T11:55:20;30.80;59.00
25440;DHT22;13365;52.208;5.488;2022-07-30T11:57:46;30.80;58.20
25440;DHT22;13365;52.208;5.488;2022-07-30T12:00:11;31.00;58.20
25440;DHT22;13365;52.208;5.488;2022-07-30T12:02:37;30.80;56.30
25440;DHT22;13365;52.208;5.488;2022-07-30T12:05:03;30.50;56.10
25440;DHT22;13365;52.208;5.488;2022-07-30T12:07:28;30.60;57.20
25440;DHT22;13365;52.208;5.488;2022-07-30T12:10:10;31.20;56.70
25440;DHT22;13365;52.208;5.488;2022-07-30T12:12:35;31.70;56.40
25440;DHT22;13365;52.208;5.488;2022-07-30T12:15:01;31.80;55.80
25440;DHT22;13365;52.208;5.488;2022-07-30T12:18:00;31.90;55.70
25440;DHT22;13365;52.208;5.488;2022-07-30T12:20:19;31.50;54.90
25440;DHT22;13365;52.208;5.488;2022-07-30T12:22:45;31.60;54.80
25440;DHT22;13365;52.208;5.488;2022-07-30T12:25:10;32.00;56.40
25440;DHT22;13365;52.208;5.488;2022-07-30T12:27:36;32.00;55.20
25440;DHT22;13365;52.208;5.488;2022-07-30T12:30:03;31.70;55.10
25440;DHT22;13365;52.208;5.488;2022-07-30T12:32:28;31.40;54.20
25440;DHT22;13365;52.208;5.488;2022-07-30T12:34:55;31.10;55.00
25440;DHT22;13365;52.208;5.488;2022-07-30T12:37:21;31.30;54.80
25440;DHT22;13365;52.208;5.488;2022-07-30T12:39:47;31.70;55.70
25440;DHT22;13365;52.208;5.488;2022-07-30T12:42:19;31.50;54.70
25440;DHT22;13365;52.208;5.488;2022-07-30T12:44:45;31.40;55.30
25440;DHT22;13365;52.208;5.488;2022-07-30T12:47:21;31.20;54.60
25440;DHT22;13365;52.208;5.488;2022-07-30T12:49:48;30.70;54.30
25440;DHT22;13365;52.208;5.488;2022-07-30T12:52:26;30.60;54.60
25440;DHT22;13365;52.208;5.488;2022-07-30T12:55:05;30.40;54.80
25440;DHT22;13365;52.208;5.488;2022-07-30T13:00:15;30.10;55.20
25440;DHT22;13365;52.208;5.488;2022-07-30T13:02:41;29.90;55.00
25440;DHT22;13365;52.208;5.488;2022-07-30T13:05:06;29.90;56.00
25440;DHT22;13365;52.208;5.488;2022-07-30T13:07:32;30.50;56.20
25440;DHT22;13365;52.208;5.488;2022-07-30T13:10:05;30.20;55.30
25440;DHT22;13365;52.208;5.488;2022-07-30T13:12:31;30.10;55.00
25440;DHT22;13365;52.208;5.488;2022-07-30T13:14:56;30.10;55.00
25440;DHT22;13365;52.208;5.488;2022-07-30T13:17:22;30.20;55.50
25440;DHT22;13365;52.208;5.488;2022-07-30T13:19:47;30.10;55.20
25440;DHT22;13365;52.208;5.488;2022-07-30T13:22:13;30.20;54.90
25440;DHT22;13365;52.208;5.488;2022-07-30T13:24:38;30.20;55.90
25440;DHT22;13365;52.208;5.488;2022-07-30T13:27:03;30.20;55.80
25440;DHT22;13365;52.208;5.488;2022-07-30T13:29:29;30.30;54.80
25440;DHT22;13365;52.208;5.488;2022-07-30T13:31:56;30.40;55.50
25440;DHT22;13365;52.208;5.488;2022-07-30T13:34:21;30.70;55.00
25440;DHT22;13365;52.208;5.488;2022-07-30T13:36:47;30.50;54.40
25440;DHT22;13365;52.208;5.488;2022-07-30T13:39:12;30.80;54.80
25440;DHT22;13365;52.208;5.488;2022-07-30T13:41:38;31.00;54.00
25440;DHT22;13365;52.208;5.488;2022-07-30T13:44:05;30.90;54.80
25440;DHT22;13365;52.208;5.488;2022-07-30T13:46:31;31.00;54.50
25440;DHT22;13365;52.208;5.488;2022-07-30T13:48:57;31.40;54.90
25440;DHT22;13365;52.208;5.488;2022-07-30T13:51:23;31.20;53.90
25440;DHT22;13365;52.208;5.488;2022-07-30T13:53:48;30.80;53.80
25440;DHT22;13365;52.208;5.488;2022-07-30T13:56:14;31.10;54.40
25440;DHT22;13365;52.208;5.488;2022-07-30T13:58:39;31.00;53.30
25440;DHT22;13365;52.208;5.488;2022-07-30T14:01:05;30.50;53.20
25440;DHT22;13365;52.208;5.488;2022-07-30T14:03:31;30.40;53.70
25440;DHT22;13365;52.208;5.488;2022-07-30T14:05:56;30.50;54.90
25440;DHT22;13365;52.208;5.488;2022-07-30T14:08:21;30.70;53.40
25440;DHT22;13365;52.208;5.488;2022-07-30T14:10:47;30.10;53.70
25440;DHT22;13365;52.208;5.488;2022-07-30T14:13:12;30.10;54.50
25440;DHT22;13365;52.208;5.488;2022-07-30T14:15:38;29.80;55.60
25440;DHT22;13365;52.208;5.488;2022-07-30T14:18:03;29.50;55.50
25440;DHT22;13365;52.208;5.488;2022-07-30T14:20:29;29.30;56.30
25440;DHT22;13365;52.208;5.488;2022-07-30T14:22:55;29.40;56.10
25440;DHT22;13365;52.208;5.488;2022-07-30T14:25:21;29.60;57.00
25440;DHT22;13365;52.208;5.488;2022-07-30T14:27:47;29.30;57.00
25440;DHT22;13365;52.208;5.488;2022-07-30T14:30:12;29.10;56.40
25440;DHT22;13365;52.208;5.488;2022-07-30T14:32:38;28.90;57.40
25440;DHT22;13365;52.208;5.488;2022-07-30T14:35:07;29.10;58.40
25440;DHT22;13365;52.208;5.488;2022-07-30T14:37:36;29.10;57.20
25440;DHT22;13365;52.208;5.488;2022-07-30T14:40:02;28.70;57.50
25440;DHT22;13365;52.208;5.488;2022-07-30T14:42:28;29.00;58.30
25440;DHT22;13365;52.208;5.488;2022-07-30T14:44:54;29.00;57.70
25440;DHT22;13365;52.208;5.488;2022-07-30T14:47:19;29.00;58.20
25440;DHT22;13365;52.208;5.488;2022-07-30T14:49:48;28.70;57.80
25440;DHT22;13365;52.208;5.488;2022-07-30T14:52:13;28.90;58.60
25440;DHT22;13365;52.208;5.488;2022-07-30T14:54:38;28.70;57.90
25440;DHT22;13365;52.208;5.488;2022-07-30T14:57:04;28.50;58.10
25440;DHT22;13365;52.208;5.488;2022-07-30T14:59:33;28.80;58.50
25440;DHT22;13365;52.208;5.488;2022-07-30T15:01:58;29.00;57.40
25440;DHT22;13365;52.208;5.488;2022-07-30T15:04:24;29.00;57.90
25440;DHT22;13365;52.208;5.488;2022-07-30T15:06:49;29.00;57.20
25440;DHT22;13365;52.208;5.488;2022-07-30T15:09:15;28.80;58.10
25440;DHT22;13365;52.208;5.488;2022-07-30T15:11:40;28.50;57.90
25440;DHT22;13365;52.208;5.488;2022-07-30T15:14:06;28.80;58.00
25440;DHT22;13365;52.208;5.488;2022-07-30T15:16:31;28.40;57.50
25440;DHT22;13365;52.208;5.488;2022-07-30T15:18:56;28.30;57.90
25440;DHT22;13365;52.208;5.488;2022-07-30T15:21:23;28.70;57.90
25440;DHT22;13365;52.208;5.488;2022-07-30T15:23:48;28.90;57.80
25440;DHT22;13365;52.208;5.488;2022-07-30T15:26:14;28.70;57.30
25440;DHT22;13365;52.208;5.488;2022-07-30T15:28:39;28.60;57.70
25440;DHT22;13365;52.208;5.488;2022-07-30T15:31:05;28.90;58.00
25440;DHT22;13365;52.208;5.488;2022-07-30T15:33:30;29.10;56.80
25440;DHT22;13365;52.208;5.488;2022-07-30T15:35:56;29.20;56.80
25440;DHT22;13365;52.208;5.488;2022-07-30T15:38:21;28.90;56.80
25440;DHT22;13365;52.208;5.488;2022-07-30T15:40:47;28.80;57.00
25440;DHT22;13365;52.208;5.488;2022-07-30T15:43:12;29.40;57.00
25440;DHT22;13365;52.208;5.488;2022-07-30T15:45:38;29.60;56.90
25440;DHT22;13365;52.208;5.488;2022-07-30T15:48:03;29.80;56.10
25440;DHT22;13365;52.208;5.488;2022-07-30T15:50:29;30.10;56.00
25440;DHT22;13365;52.208;5.488;2022-07-30T15:52:54;30.60;55.30
25440;DHT22;13365;52.208;5.488;2022-07-30T15:55:21;30.60;54.10
25440;DHT22;13365;52.208;5.488;2022-07-30T15:57:47;30.90;54.90
25440;DHT22;13365;52.208;5.488;2022-07-30T16:00:12;30.80;55.10